ADDS METAR Data INFO
IDs: Format: Raw Decoded Include TAF

Data at: 2227 UTC 22 Aug 2017

KAFN 222152Z AUTO 20010G20KT 10SM CLR 28/21 A2980 RMK AO2 SLP090 T02830211
KAFN 222052Z AUTO 21009G18KT 10SM FEW044 29/21 A2982 RMK AO2 SLP095 T02940211 56032
KAFN 221952Z AUTO 20009G18KT 10SM FEW041 SCT050 29/22 A2984 RMK AO2 SLP102 T02890217
KAFN 221852Z AUTO 20010G18KT 10SM FEW040 FEW055 30/22 A2988 RMK AO2 SLP115 T03000217
KAFN 221752Z AUTO 20009KT 170V230 10SM FEW060 29/21 A2992 RMK AO2 SLP128 T02940211 10294 20206 58025
KAFN 221652Z AUTO 20008G17KT 10SM FEW037 29/21 A2994 RMK AO2 SLP136 T02890211
KAFN 221552Z AUTO 20009KT 10SM CLR 27/22 A2997 RMK AO2 SLP147 T02720217
KAFN 221452Z AUTO VRB05KT 10SM FEW009 25/21 A2999 RMK AO2 SLP155 T02500211 58017
KAFN 221352Z AUTO 23005KT 7SM OVC006 22/21 A3002 RMK AO2 CIG 004V009 SLP164 T02220206
KAFN 221252Z AUTO 21004KT 3SM BR OVC003 21/21 A3003 RMK AO2 SLP170 T02060206
KAFN 221152Z AUTO 20004KT 4SM BR OVC003 19/19 A3004 RMK AO2 SLP174 T01940194 10194 20167 55003
KAFN 221052Z AUTO 00000KT 5SM BR OVC003 18/18 A3004 RMK AO2 SLP173 T01780178
KAFN 221018Z AUTO 00000KT 5SM BR OVC004 17/17 A3004 RMK AO2 T01720172
KAFN 220952Z AUTO 00000KT 6SM BR BKN005 17/17 A3005 RMK AO2 SLP175 T01670167
KAFN 220945Z AUTO 18003KT 6SM BR BKN005 17/17 A3005 RMK AO2 T01670167
KAFN 220938Z AUTO 00000KT 7SM SCT006 17/17 A3005 RMK AO2 T01670167
KAFN 220852Z AUTO 00000KT 6SM BR CLR 17/17 A3005 RMK AO2 SLP176 T01670167 56013
KAFN 220752Z AUTO 00000KT 6SM BR CLR 17/17 A3006 RMK AO2 SLP178 T01720172
KAFN 220652Z AUTO 00000KT 6SM BR CLR 17/17 A3008 RMK AO2 SLP184 T01720172
KAFN 220552Z AUTO 00000KT 8SM CLR 18/18 A3009 RMK AO2 SLP189 T01830183 10211 20183 58004
KAFN 220452Z AUTO 00000KT 10SM CLR 21/19 A3010 RMK AO2 SLP190 T02060189 402830133
KAFN 220352Z AUTO 20004KT 10SM CLR 21/18 A3010 RMK AO2 SLP191 T02110183
KAFN 220252Z AUTO 21005KT 10SM CLR 20/18 A3010 RMK AO2 SLP194 T02000183 58004
KAFN 220152Z AUTO 00000KT 10SM CLR 19/19 A3012 RMK AO2 SLP199 T01940189
KAFN 220052Z AUTO 19003KT 10SM CLR 19/18 A3012 RMK AO2 SLP200 T01940183
KAFN 212352Z AUTO 18004KT 10SM CLR 21/19 A3012 RMK AO2 SLP200 T02110189 10278 20211 55004
KAFN 212252Z AUTO 20003KT 10SM CLR 26/17 A3011 RMK AO2 SLP196 T02560167
KAFN 212152Z AUTO 25007KT 10SM CLR 28/16 A3012 RMK AO2 SLP200 T02780156
KAFN 212052Z AUTO 24008G14KT 10SM CLR 28/15 A3013 RMK AO2 SLP203 T02780150 56009
KAFN 211952Z AUTO 21008KT 10SM CLR 28/16 A3013 RMK AO2 SLP204 T02780161
KAFN 211852Z AUTO 26004KT 10SM CLR 27/16 A3014 RMK AO2 SLP207 T02670161
KAFN 211752Z AUTO VRB04KT 10SM CLR 27/16 A3016 RMK AO2 SLP211 T02720156 10283 20178 58013
KAFN 211652Z AUTO VRB05KT 10SM CLR 28/14 A3017 RMK AO2 SLP216 T02780144
KAFN 211552Z AUTO 22006KT 10SM CLR 25/18 A3019 RMK AO2 SLP224 T02500178
KAFN 211452Z AUTO 22008KT 180V240 10SM CLR 24/18 A3020 RMK AO2 SLP227 T02440178 55005
KAFN 211352Z AUTO 19005KT 10SM CLR 23/17 A3019 RMK AO2 SLP224 T02280172
KAFN 211252Z AUTO 19005KT 10SM CLR 21/17 A3020 RMK AO2 SLP229 T02060167
KAFN 211152Z AUTO 17004KT 10SM CLR 18/16 A3021 RMK AO2 SLP233 T01780161 10189 20133 51008
KAFN 211052Z AUTO 15003KT 9SM CLR 16/15 A3021 RMK AO2 SLP230 T01560150